sensor_id;sensor_type;location;lat;lon;timestamp;P1;durP1;ratioP1;P2;durP2;ratioP2
6941;SDS011;3510;43.200;27.920;2024-02-26T00:00:26;13.00;;;9.77;;
6941;SDS011;3510;43.200;27.920;2024-02-26T00:02:53;10.13;;;9.20;;
6941;SDS011;3510;43.200;27.920;2024-02-26T00:05:20;13.87;;;10.97;;
6941;SDS011;3510;43.200;27.920;2024-02-26T00:07:47;23.43;;;13.87;;
6941;SDS011;3510;43.200;27.920;2024-02-26T00:10:16;19.97;;;12.47;;
6941;SDS011;3510;43.200;27.920;2024-02-26T00:12:43;15.67;;;10.90;;
6941;SDS011;3510;43.200;27.920;2024-02-26T00:15:10;15.77;;;9.33;;
6941;SDS011;3510;43.200;27.920;2024-02-26T00:17:37;15.27;;;9.80;;
6941;SDS011;3510;43.200;27.920;2024-02-26T00:20:04;21.57;;;8.83;;
6941;SDS011;3510;43.200;27.920;2024-02-26T00:22:33;15.10;;;9.73;;
6941;SDS011;3510;43.200;27.920;2024-02-26T00:25:00;14.50;;;7.97;;
6941;SDS011;3510;43.200;27.920;2024-02-26T00:27:31;10.00;;;8.03;;
6941;SDS011;3510;43.200;27.920;2024-02-26T00:29:58;14.33;;;8.60;;
6941;SDS011;3510;43.200;27.920;2024-02-26T00:32:25;14.73;;;9.33;;
6941;SDS011;3510;43.200;27.920;2024-02-26T00:34:52;16.60;;;10.23;;
6941;SDS011;3510;43.200;27.920;2024-02-26T00:37:19;15.07;;;10.00;;
6941;SDS011;3510;43.200;27.920;2024-02-26T00:39:48;15.07;;;10.77;;
6941;SDS011;3510;43.200;27.920;2024-02-26T00:42:15;19.47;;;13.23;;
6941;SDS011;3510;43.200;27.920;2024-02-26T00:44:43;23.87;;;10.80;;
6941;SDS011;3510;43.200;27.920;2024-02-26T00:47:10;18.60;;;10.60;;
6941;SDS011;3510;43.200;27.920;2024-02-26T00:49:37;12.93;;;9.40;;
6941;SDS011;3510;43.200;27.920;2024-02-26T00:52:06;19.10;;;11.23;;
6941;SDS011;3510;43.200;27.920;2024-02-26T00:54:33;16.87;;;10.53;;
6941;SDS011;3510;43.200;27.920;2024-02-26T00:57:00;16.10;;;10.20;;
6941;SDS011;3510;43.200;27.920;2024-02-26T00:59:27;18.57;;;10.57;;
6941;SDS011;3510;43.200;27.920;2024-02-26T01:01:56;18.00;;;11.97;;
6941;SDS011;3510;43.200;27.920;2024-02-26T01:04:23;12.53;;;9.20;;
6941;SDS011;3510;43.200;27.920;2024-02-26T01:06:50;13.80;;;8.67;;
6941;SDS011;3510;43.200;27.920;2024-02-26T01:09:17;14.13;;;9.80;;
6941;SDS011;3510;43.200;27.920;2024-02-26T01:11:44;11.53;;;8.93;;
6941;SDS011;3510;43.200;27.920;2024-02-26T01:14:12;17.37;;;9.67;;
6941;SDS011;3510;43.200;27.920;2024-02-26T01:16:39;14.77;;;9.67;;
6941;SDS011;3510;43.200;27.920;2024-02-26T01:19:08;12.40;;;9.87;;
6941;SDS011;3510;43.200;27.920;2024-02-26T01:21:34;15.93;;;10.10;;
6941;SDS011;3510;43.200;27.920;2024-02-26T01:24:01;12.33;;;9.70;;
6941;SDS011;3510;43.200;27.920;2024-02-26T01:26:28;16.37;;;10.73;;
6941;SDS011;3510;43.200;27.920;2024-02-26T01:28:56;17.43;;;10.43;;
6941;SDS011;3510;43.200;27.920;2024-02-26T01:31:23;14.30;;;10.37;;
6941;SDS011;3510;43.200;27.920;2024-02-26T01:33:50;19.23;;;11.00;;
6941;SDS011;3510;43.200;27.920;2024-02-26T01:36:19;17.20;;;10.43;;
6941;SDS011;3510;43.200;27.920;2024-02-26T01:38:46;12.60;;;9.60;;
6941;SDS011;3510;43.200;27.920;2024-02-26T01:41:13;15.93;;;12.00;;
6941;SDS011;3510;43.200;27.920;2024-02-26T01:43:40;11.73;;;9.63;;
6941;SDS011;3510;43.200;27.920;2024-02-26T01:46:07;17.63;;;10.10;;
6941;SDS011;3510;43.200;27.920;2024-02-26T01:48:39;18.67;;;11.77;;
6941;SDS011;3510;43.200;27.920;2024-02-26T01:51:06;17.97;;;9.37;;
6941;SDS011;3510;43.200;27.920;2024-02-26T01:53:35;13.17;;;8.10;;
6941;SDS011;3510;43.200;27.920;2024-02-26T01:56:02;15.37;;;8.80;;
6941;SDS011;3510;43.200;27.920;2024-02-26T01:58:30;9.07;;;7.83;;
6941;SDS011;3510;43.200;27.920;2024-02-26T02:00:57;10.70;;;7.43;;
6941;SDS011;3510;43.200;27.920;2024-02-26T02:03:25;19.07;;;8.27;;
6941;SDS011;3510;43.200;27.920;2024-02-26T02:05:52;8.50;;;7.03;;
6941;SDS011;3510;43.200;27.920;2024-02-26T02:08:19;23.63;;;9.80;;
6941;SDS011;3510;43.200;27.920;2024-02-26T02:10:47;9.73;;;7.17;;
6941;SDS011;3510;43.200;27.920;2024-02-26T02:13:15;10.07;;;8.50;;
6941;SDS011;3510;43.200;27.920;2024-02-26T02:15:42;13.20;;;7.70;;
6941;SDS011;3510;43.200;27.920;2024-02-26T02:18:09;8.57;;;6.57;;
6941;SDS011;3510;43.200;27.920;2024-02-26T02:20:37;10.83;;;7.50;;
6941;SDS011;3510;43.200;27.920;2024-02-26T02:23:04;12.23;;;5.87;;
6941;SDS011;3510;43.200;27.920;2024-02-26T02:25:31;11.37;;;6.57;;
6941;SDS011;3510;43.200;27.920;2024-02-26T02:27:58;13.97;;;6.57;;
6941;SDS011;3510;43.200;27.920;2024-02-26T02:30:26;12.70;;;7.70;;
6941;SDS011;3510;43.200;27.920;2024-02-26T02:32:55;8.97;;;6.33;;
6941;SDS011;3510;43.200;27.920;2024-02-26T02:35:23;14.23;;;7.33;;
6941;SDS011;3510;43.200;27.920;2024-02-26T02:37:52;17.23;;;8.70;;
6941;SDS011;3510;43.200;27.920;2024-02-26T02:40:19;15.63;;;8.10;;
6941;SDS011;3510;43.200;27.920;2024-02-26T02:42:46;11.33;;;8.27;;
6941;SDS011;3510;43.200;27.920;2024-02-26T02:45:13;11.90;;;8.43;;
6941;SDS011;3510;43.200;27.920;2024-02-26T02:47:40;11.27;;;8.07;;
6941;SDS011;3510;43.200;27.920;2024-02-26T02:50:07;11.93;;;7.97;;
6941;SDS011;3510;43.200;27.920;2024-02-26T02:52:35;22.53;;;7.87;;
6941;SDS011;3510;43.200;27.920;2024-02-26T02:55:03;12.57;;;7.70;;
6941;SDS011;3510;43.200;27.920;2024-02-26T02:57:30;14.30;;;7.27;;
6941;SDS011;3510;43.200;27.920;2024-02-26T02:59:58;13.97;;;7.27;;
6941;SDS011;3510;43.200;27.920;2024-02-26T03:02:25;9.70;;;8.57;;
6941;SDS011;3510;43.200;27.920;2024-02-26T03:04:52;11.67;;;7.30;;
6941;SDS011;3510;43.200;27.920;2024-02-26T03:07:19;12.90;;;6.27;;
6941;SDS011;3510;43.200;27.920;2024-02-26T03:09:46;16.87;;;6.00;;
6941;SDS011;3510;43.200;27.920;2024-02-26T03:12:29;16.97;;;7.77;;
6941;SDS011;3510;43.200;27.920;2024-02-26T03:14:57;8.60;;;7.20;;
6941;SDS011;3510;43.200;27.920;2024-02-26T03:17:23;8.73;;;6.80;;
6941;SDS011;3510;43.200;27.920;2024-02-26T03:19:50;10.10;;;6.50;;
6941;SDS011;3510;43.200;27.920;2024-02-26T03:22:19;14.00;;;5.97;;
6941;SDS011;3510;43.200;27.920;2024-02-26T03:24:46;7.57;;;5.30;;
6941;SDS011;3510;43.200;27.920;2024-02-26T03:27:13;6.53;;;5.83;;
6941;SDS011;3510;43.200;27.920;2024-02-26T03:29:41;8.07;;;5.53;;
6941;SDS011;3510;43.200;27.920;2024-02-26T03:32:08;11.27;;;7.17;;
6941;SDS011;3510;43.200;27.920;2024-02-26T03:34:35;12.43;;;7.50;;
6941;SDS011;3510;43.200;27.920;2024-02-26T03:37:04;10.27;;;7.23;;
6941;SDS011;3510;43.200;27.920;2024-02-26T03:39:31;10.23;;;6.30;;
6941;SDS011;3510;43.200;27.920;2024-02-26T03:42:12;8.60;;;5.20;;
6941;SDS011;3510;43.200;27.920;2024-02-26T03:44:54;11.63;;;5.30;;
6941;SDS011;3510;43.200;27.920;2024-02-26T03:47:21;12.13;;;5.40;;
6941;SDS011;3510;43.200;27.920;2024-02-26T03:49:47;11.60;;;5.77;;
6941;SDS011;3510;43.200;27.920;2024-02-26T03:52:14;10.50;;;4.97;;
6941;SDS011;3510;43.200;27.920;2024-02-26T03:54:41;15.70;;;5.60;;
6941;SDS011;3510;43.200;27.920;2024-02-26T03:57:08;7.80;;;5.73;;
6941;SDS011;3510;43.200;27.920;2024-02-26T03:59:35;13.50;;;5.17;;
6941;SDS011;3510;43.200;27.920;2024-02-26T04:05:00;12.83;;;5.40;;
6941;SDS011;3510;43.200;27.920;2024-02-26T04:07:27;10.73;;;5.00;;
6941;SDS011;3510;43.200;27.920;2024-02-26T04:09:54;9.77;;;5.27;;
6941;SDS011;3510;43.200;27.920;2024-02-26T04:12:21;7.50;;;4.27;;
6941;SDS011;3510;43.200;27.920;2024-02-26T04:14:47;8.30;;;4.50;;
6941;SDS011;3510;43.200;27.920;2024-02-26T04:17:28;11.07;;;6.17;;
6941;SDS011;3510;43.200;27.920;2024-02-26T04:19:56;8.37;;;5.17;;
6941;SDS011;3510;43.200;27.920;2024-02-26T04:22:23;10.10;;;4.97;;
6941;SDS011;3510;43.200;27.920;2024-02-26T04:24:50;9.27;;;4.53;;
6941;SDS011;3510;43.200;27.920;2024-02-26T04:27:17;8.63;;;4.90;;
6941;SDS011;3510;43.200;27.920;2024-02-26T04:29:43;12.67;;;6.43;;
6941;SDS011;3510;43.200;27.920;2024-02-26T04:32:10;11.13;;;4.50;;
6941;SDS011;3510;43.200;27.920;2024-02-26T04:34:37;12.60;;;5.17;;
6941;SDS011;3510;43.200;27.920;2024-02-26T04:37:05;7.93;;;5.80;;
6941;SDS011;3510;43.200;27.920;2024-02-26T04:39:32;8.73;;;4.70;;
6941;SDS011;3510;43.200;27.920;2024-02-26T04:41:59;14.17;;;4.53;;
6941;SDS011;3510;43.200;27.920;2024-02-26T04:44:28;8.87;;;5.77;;
6941;SDS011;3510;43.200;27.920;2024-02-26T04:46:55;11.83;;;4.27;;
6941;SDS011;3510;43.200;27.920;2024-02-26T04:49:22;6.97;;;4.37;;
6941;SDS011;3510;43.200;27.920;2024-02-26T04:51:49;10.53;;;4.50;;
6941;SDS011;3510;43.200;27.920;2024-02-26T04:54:17;10.67;;;4.77;;
6941;SDS011;3510;43.200;27.920;2024-02-26T04:56:44;11.57;;;4.97;;
6941;SDS011;3510;43.200;27.920;2024-02-26T04:59:11;14.63;;;4.73;;
6941;SDS011;3510;43.200;27.920;2024-02-26T05:01:39;9.40;;;4.43;;
6941;SDS011;3510;43.200;27.920;2024-02-26T05:04:06;13.87;;;4.90;;
6941;SDS011;3510;43.200;27.920;2024-02-26T05:06:33;14.80;;;5.43;;
6941;SDS011;3510;43.200;27.920;2024-02-26T05:09:00;11.37;;;4.47;;
6941;SDS011;3510;43.200;27.920;2024-02-26T05:11:30;5.50;;;4.60;;
6941;SDS011;3510;43.200;27.920;2024-02-26T05:13:57;7.20;;;5.10;;
6941;SDS011;3510;43.200;27.920;2024-02-26T05:16:25;14.30;;;5.20;;
6941;SDS011;3510;43.200;27.920;2024-02-26T05:18:52;4.03;;;3.57;;
6941;SDS011;3510;43.200;27.920;2024-02-26T05:21:19;8.57;;;5.10;;
6941;SDS011;3510;43.200;27.920;2024-02-26T05:23:46;13.47;;;5.53;;
6941;SDS011;3510;43.200;27.920;2024-02-26T05:26:18;9.57;;;4.53;;
6941;SDS011;3510;43.200;27.920;2024-02-26T05:28:47;14.23;;;4.33;;
6941;SDS011;3510;43.200;27.920;2024-02-26T05:31:15;15.10;;;4.67;;
6941;SDS011;3510;43.200;27.920;2024-02-26T05:33:43;20.03;;;5.77;;
6941;SDS011;3510;43.200;27.920;2024-02-26T05:36:10;15.83;;;5.30;;
6941;SDS011;3510;43.200;27.920;2024-02-26T05:38:43;9.10;;;4.80;;
6941;SDS011;3510;43.200;27.920;2024-02-26T05:41:11;13.30;;;5.87;;
6941;SDS011;3510;43.200;27.920;2024-02-26T05:43:38;8.37;;;4.40;;
6941;SDS011;3510;43.200;27.920;2024-02-26T05:46:07;16.63;;;5.77;;
6941;SDS011;3510;43.200;27.920;2024-02-26T05:48:34;13.47;;;5.87;;
6941;SDS011;3510;43.200;27.920;2024-02-26T05:51:01;7.33;;;4.20;;
6941;SDS011;3510;43.200;27.920;2024-02-26T05:53:28;12.57;;;4.83;;
6941;SDS011;3510;43.200;27.920;2024-02-26T05:55:55;15.70;;;5.63;;
6941;SDS011;3510;43.200;27.920;2024-02-26T05:58:22;12.93;;;5.73;;
6941;SDS011;3510;43.200;27.920;2024-02-26T06:00:48;13.23;;;4.97;;
6941;SDS011;3510;43.200;27.920;2024-02-26T06:03:17;4.87;;;4.27;;
6941;SDS011;3510;43.200;27.920;2024-02-26T06:05:44;9.80;;;4.70;;
6941;SDS011;3510;43.200;27.920;2024-02-26T06:08:12;13.73;;;5.23;;
6941;SDS011;3510;43.200;27.920;2024-02-26T06:10:40;11.73;;;4.97;;
6941;SDS011;3510;43.200;27.920;2024-02-26T06:13:06;6.33;;;4.10;;
6941;SDS011;3510;43.200;27.920;2024-02-26T06:15:33;6.03;;;5.07;;
6941;SDS011;3510;43.200;27.920;2024-02-26T06:18:01;11.87;;;4.40;;
6941;SDS011;3510;43.200;27.920;2024-02-26T06:20:29;12.20;;;4.77;;
6941;SDS011;3510;43.200;27.920;2024-02-26T06:22:56;8.10;;;3.70;;
6941;SDS011;3510;43.200;27.920;2024-02-26T06:25:23;9.50;;;4.60;;
6941;SDS011;3510;43.200;27.920;2024-02-26T06:27:50;8.40;;;4.10;;
6941;SDS011;3510;43.200;27.920;2024-02-26T06:30:17;7.80;;;5.20;;
6941;SDS011;3510;43.200;27.920;2024-02-26T06:32:44;11.30;;;4.47;;
6941;SDS011;3510;43.200;27.920;2024-02-26T06:35:11;14.53;;;4.67;;
6941;SDS011;3510;43.200;27.920;2024-02-26T06:37:40;7.03;;;4.40;;
6941;SDS011;3510;43.200;27.920;2024-02-26T06:40:07;16.03;;;5.60;;
6941;SDS011;3510;43.200;27.920;2024-02-26T06:42:34;7.53;;;3.87;;
6941;SDS011;3510;43.200;27.920;2024-02-26T06:45:02;7.17;;;4.60;;
6941;SDS011;3510;43.200;27.920;2024-02-26T06:47:30;8.27;;;4.03;;
6941;SDS011;3510;43.200;27.920;2024-02-26T06:49:58;12.37;;;4.33;;
6941;SDS011;3510;43.200;27.920;2024-02-26T06:52:26;10.10;;;4.23;;
6941;SDS011;3510;43.200;27.920;2024-02-26T06:54:54;9.90;;;4.10;;
6941;SDS011;3510;43.200;27.920;2024-02-26T06:57:21;15.67;;;5.00;;
6941;SDS011;3510;43.200;27.920;2024-02-26T06:59:49;8.23;;;4.50;;
6941;SDS011;3510;43.200;27.920;2024-02-26T07:02:16;9.10;;;4.27;;
6941;SDS011;3510;43.200;27.920;2024-02-26T07:04:43;13.77;;;4.43;;
6941;SDS011;3510;43.200;27.920;2024-02-26T07:07:10;11.03;;;5.03;;
6941;SDS011;3510;43.200;27.920;2024-02-26T07:09:36;9.07;;;4.30;;
6941;SDS011;3510;43.200;27.920;2024-02-26T07:12:05;6.27;;;4.27;;
6941;SDS011;3510;43.200;27.920;2024-02-26T07:14:32;14.77;;;5.53;;
6941;SDS011;3510;43.200;27.920;2024-02-26T07:16:59;11.77;;;5.10;;
6941;SDS011;3510;43.200;27.920;2024-02-26T07:19:26;6.43;;;4.47;;
6941;SDS011;3510;43.200;27.920;2024-02-26T07:21:53;8.60;;;4.33;;
6941;SDS011;3510;43.200;27.920;2024-02-26T07:24:20;11.03;;;4.30;;
6941;SDS011;3510;43.200;27.920;2024-02-26T07:26:48;7.70;;;4.30;;
6941;SDS011;3510;43.200;27.920;2024-02-26T07:29:16;11.47;;;4.17;;
6941;SDS011;3510;43.200;27.920;2024-02-26T07:31:43;12.27;;;3.97;;
6941;SDS011;3510;43.200;27.920;2024-02-26T07:34:10;13.10;;;4.63;;
6941;SDS011;3510;43.200;27.920;2024-02-26T07:36:38;7.57;;;4.37;;
6941;SDS011;3510;43.200;27.920;2024-02-26T07:39:06;13.33;;;4.57;;
6941;SDS011;3510;43.200;27.920;2024-02-26T07:41:33;11.77;;;4.73;;
6941;SDS011;3510;43.200;27.920;2024-02-26T07:44:00;10.23;;;4.50;;
6941;SDS011;3510;43.200;27.920;2024-02-26T07:46:29;9.63;;;4.87;;
6941;SDS011;3510;43.200;27.920;2024-02-26T07:48:56;14.00;;;4.70;;
6941;SDS011;3510;43.200;27.920;2024-02-26T07:51:23;12.80;;;4.60;;
6941;SDS011;3510;43.200;27.920;2024-02-26T07:53:50;7.70;;;4.67;;
6941;SDS011;3510;43.200;27.920;2024-02-26T07:56:18;11.93;;;4.60;;
6941;SDS011;3510;43.200;27.920;2024-02-26T07:58:45;10.90;;;4.60;;
6941;SDS011;3510;43.200;27.920;2024-02-26T08:01:12;12.80;;;4.63;;
6941;SDS011;3510;43.200;27.920;2024-02-26T08:13:25;11.83;;;4.20;;
6941;SDS011;3510;43.200;27.920;2024-02-26T08:15:52;12.23;;;4.13;;
6941;SDS011;3510;43.200;27.920;2024-02-26T08:18:33;8.47;;;4.23;;
6941;SDS011;3510;43.200;27.920;2024-02-26T08:21:13;8.47;;;4.20;;
6941;SDS011;3510;43.200;27.920;2024-02-26T08:23:42;7.13;;;4.40;;
6941;SDS011;3510;43.200;27.920;2024-02-26T08:26:09;14.37;;;4.13;;
6941;SDS011;3510;43.200;27.920;2024-02-26T08:28:40;11.97;;;4.10;;
6941;SDS011;3510;43.200;27.920;2024-02-26T08:31:06;7.97;;;4.23;;
6941;SDS011;3510;43.200;27.920;2024-02-26T08:33:47;9.23;;;4.10;;
6941;SDS011;3510;43.200;27.920;2024-02-26T08:36:14;12.60;;;4.23;;
6941;SDS011;3510;43.200;27.920;2024-02-26T08:38:55;8.97;;;4.00;;
6941;SDS011;3510;43.200;27.920;2024-02-26T08:41:35;9.23;;;4.00;;
6941;SDS011;3510;43.200;27.920;2024-02-26T08:44:04;8.57;;;4.03;;
6941;SDS011;3510;43.200;27.920;2024-02-26T08:46:30;9.30;;;3.77;;
6941;SDS011;3510;43.200;27.920;2024-02-26T08:48:57;14.67;;;3.60;;
6941;SDS011;3510;43.200;27.920;2024-02-26T08:51:41;12.77;;;4.00;;
6941;SDS011;3510;43.200;27.920;2024-02-26T08:54:22;11.30;;;4.40;;
6941;SDS011;3510;43.200;27.920;2024-02-26T08:56:49;12.20;;;4.00;;
6941;SDS011;3510;43.200;27.920;2024-02-26T08:59:17;14.53;;;3.93;;
6941;SDS011;3510;43.200;27.920;2024-02-26T09:01:58;9.07;;;3.80;;
6941;SDS011;3510;43.200;27.920;2024-02-26T09:04:25;8.33;;;4.37;;
6941;SDS011;3510;43.200;27.920;2024-02-26T09:06:52;8.47;;;4.17;;
6941;SDS011;3510;43.200;27.920;2024-02-26T09:09:20;10.43;;;4.13;;
6941;SDS011;3510;43.200;27.920;2024-02-26T09:11:50;7.53;;;3.93;;
6941;SDS011;3510;43.200;27.920;2024-02-26T09:14:19;11.47;;;4.47;;
6941;SDS011;3510;43.200;27.920;2024-02-26T09:16:46;8.53;;;3.67;;
6941;SDS011;3510;43.200;27.920;2024-02-26T09:19:13;8.40;;;3.60;;
6941;SDS011;3510;43.200;27.920;2024-02-26T09:21:47;12.43;;;4.33;;
6941;SDS011;3510;43.200;27.920;2024-02-26T09:24:14;7.43;;;3.30;;
6941;SDS011;3510;43.200;27.920;2024-02-26T09:29:17;10.97;;;3.37;;
6941;SDS011;3510;43.200;27.920;2024-02-26T09:34:20;7.57;;;3.77;;
6941;SDS011;3510;43.200;27.920;2024-02-26T09:36:47;9.40;;;4.40;;
6941;SDS011;3510;43.200;27.920;2024-02-26T09:39:14;5.27;;;3.43;;
6941;SDS011;3510;43.200;27.920;2024-02-26T09:41:46;9.27;;;4.17;;
6941;SDS011;3510;43.200;27.920;2024-02-26T09:44:14;7.77;;;4.07;;
6941;SDS011;3510;43.200;27.920;2024-02-26T09:46:46;13.27;;;3.80;;
6941;SDS011;3510;43.200;27.920;2024-02-26T09:49:14;13.17;;;3.60;;
6941;SDS011;3510;43.200;27.920;2024-02-26T09:51:43;11.47;;;4.00;;
6941;SDS011;3510;43.200;27.920;2024-02-26T09:54:10;10.60;;;3.67;;
6941;SDS011;3510;43.200;27.920;2024-02-26T09:56:39;11.53;;;4.00;;
6941;SDS011;3510;43.200;27.920;2024-02-26T09:59:10;9.33;;;4.03;;
6941;SDS011;3510;43.200;27.920;2024-02-26T10:01:39;8.17;;;3.50;;
6941;SDS011;3510;43.200;27.920;2024-02-26T10:04:10;5.70;;;3.53;;
6941;SDS011;3510;43.200;27.920;2024-02-26T10:06:38;12.60;;;4.43;;
6941;SDS011;3510;43.200;27.920;2024-02-26T10:09:08;6.83;;;3.40;;
6941;SDS011;3510;43.200;27.920;2024-02-26T10:14:12;8.40;;;3.57;;
6941;SDS011;3510;43.200;27.920;2024-02-26T10:16:42;9.93;;;3.73;;
6941;SDS011;3510;43.200;27.920;2024-02-26T10:19:15;15.37;;;4.13;;
6941;SDS011;3510;43.200;27.920;2024-02-26T10:21:54;8.47;;;3.27;;
6941;SDS011;3510;43.200;27.920;2024-02-26T10:24:28;12.73;;;3.70;;
6941;SDS011;3510;43.200;27.920;2024-02-26T10:26:56;9.30;;;4.20;;
6941;SDS011;3510;43.200;27.920;2024-02-26T10:29:25;10.27;;;4.27;;
6941;SDS011;3510;43.200;27.920;2024-02-26T10:32:04;13.87;;;3.97;;
6941;SDS011;3510;43.200;27.920;2024-02-26T10:40:01;13.27;;;4.37;;
6941;SDS011;3510;43.200;27.920;2024-02-26T10:42:30;7.13;;;4.27;;
6941;SDS011;3510;43.200;27.920;2024-02-26T10:44:57;7.10;;;4.00;;
6941;SDS011;3510;43.200;27.920;2024-02-26T10:47:24;10.73;;;3.67;;
6941;SDS011;3510;43.200;27.920;2024-02-26T10:49:51;9.97;;;3.70;;
6941;SDS011;3510;43.200;27.920;2024-02-26T10:52:18;6.33;;;3.50;;
6941;SDS011;3510;43.200;27.920;2024-02-26T10:54:47;12.63;;;3.20;;
6941;SDS011;3510;43.200;27.920;2024-02-26T10:57:16;12.77;;;3.93;;
6941;SDS011;3510;43.200;27.920;2024-02-26T10:59:45;5.33;;;3.20;;
6941;SDS011;3510;43.200;27.920;2024-02-26T11:02:12;10.37;;;3.60;;
6941;SDS011;3510;43.200;27.920;2024-02-26T11:04:45;11.73;;;3.70;;
6941;SDS011;3510;43.200;27.920;2024-02-26T11:07:13;11.83;;;3.10;;
6941;SDS011;3510;43.200;27.920;2024-02-26T11:09:41;5.03;;;2.73;;
6941;SDS011;3510;43.200;27.920;2024-02-26T11:12:13;11.77;;;3.30;;
6941;SDS011;3510;43.200;27.920;2024-02-26T11:14:40;13.13;;;3.70;;
6941;SDS011;3510;43.200;27.920;2024-02-26T11:17:11;8.70;;;3.97;;
6941;SDS011;3510;43.200;27.920;2024-02-26T11:19:39;13.87;;;4.60;;
6941;SDS011;3510;43.200;27.920;2024-02-26T11:22:10;4.47;;;2.97;;
6941;SDS011;3510;43.200;27.920;2024-02-26T11:24:37;8.30;;;3.63;;
6941;SDS011;3510;43.200;27.920;2024-02-26T11:27:08;3.63;;;3.00;;
6941;SDS011;3510;43.200;27.920;2024-02-26T11:29:53;8.83;;;3.10;;
6941;SDS011;3510;43.200;27.920;2024-02-26T11:34:57;8.60;;;3.40;;
6941;SDS011;3510;43.200;27.920;2024-02-26T11:37:25;7.73;;;4.10;;
6941;SDS011;3510;43.200;27.920;2024-02-26T11:39:51;7.63;;;3.53;;
6941;SDS011;3510;43.200;27.920;2024-02-26T11:42:22;7.60;;;3.80;;
6941;SDS011;3510;43.200;27.920;2024-02-26T11:44:55;5.80;;;3.50;;
6941;SDS011;3510;43.200;27.920;2024-02-26T11:47:26;9.80;;;3.93;;
6941;SDS011;3510;43.200;27.920;2024-02-26T11:49:53;6.27;;;2.97;;
6941;SDS011;3510;43.200;27.920;2024-02-26T11:52:20;4.83;;;4.40;;
6941;SDS011;3510;43.200;27.920;2024-02-26T11:54:47;6.90;;;3.63;;
6941;SDS011;3510;43.200;27.920;2024-02-26T11:57:22;9.47;;;3.50;;
6941;SDS011;3510;43.200;27.920;2024-02-26T11:59:50;11.30;;;3.20;;
6941;SDS011;3510;43.200;27.920;2024-02-26T12:05:23;9.50;;;3.40;;
6941;SDS011;3510;43.200;27.920;2024-02-26T12:07:53;3.67;;;2.93;;
6941;SDS011;3510;43.200;27.920;2024-02-26T12:10:23;4.33;;;3.10;;
6941;SDS011;3510;43.200;27.920;2024-02-26T12:12:54;14.07;;;3.80;;
6941;SDS011;3510;43.200;27.920;2024-02-26T12:15:30;5.83;;;3.07;;
6941;SDS011;3510;43.200;27.920;2024-02-26T12:18:01;8.00;;;3.40;;
6941;SDS011;3510;43.200;27.920;2024-02-26T12:20:30;8.73;;;3.50;;
6941;SDS011;3510;43.200;27.920;2024-02-26T12:22:58;7.17;;;3.43;;
6941;SDS011;3510;43.200;27.920;2024-02-26T12:25:25;10.00;;;4.30;;
6941;SDS011;3510;43.200;27.920;2024-02-26T12:27:53;11.33;;;3.17;;
6941;SDS011;3510;43.200;27.920;2024-02-26T12:30:20;8.43;;;3.90;;
6941;SDS011;3510;43.200;27.920;2024-02-26T12:32:47;9.20;;;3.57;;
6941;SDS011;3510;43.200;27.920;2024-02-26T12:35:16;4.03;;;3.13;;
6941;SDS011;3510;43.200;27.920;2024-02-26T12:37:44;3.33;;;3.00;;
6941;SDS011;3510;43.200;27.920;2024-02-26T12:40:10;12.30;;;3.70;;
6941;SDS011;3510;43.200;27.920;2024-02-26T12:42:38;7.70;;;2.77;;
6941;SDS011;3510;43.200;27.920;2024-02-26T12:45:06;7.97;;;3.00;;
6941;SDS011;3510;43.200;27.920;2024-02-26T12:47:36;14.40;;;4.50;;
6941;SDS011;3510;43.200;27.920;2024-02-26T12:50:05;10.73;;;3.60;;
6941;SDS011;3510;43.200;27.920;2024-02-26T12:52:36;9.53;;;3.47;;
6941;SDS011;3510;43.200;27.920;2024-02-26T12:55:05;6.93;;;3.67;;
6941;SDS011;3510;43.200;27.920;2024-02-26T12:57:34;12.93;;;4.17;;
6941;SDS011;3510;43.200;27.920;2024-02-26T13:00:04;6.47;;;2.70;;
6941;SDS011;3510;43.200;27.920;2024-02-26T13:02:34;7.93;;;3.50;;
6941;SDS011;3510;43.200;27.920;2024-02-26T13:07:42;7.27;;;3.60;;
6941;SDS011;3510;43.200;27.920;2024-02-26T13:10:12;7.97;;;4.17;;
6941;SDS011;3510;43.200;27.920;2024-02-26T13:12:42;11.33;;;3.77;;
6941;SDS011;3510;43.200;27.920;2024-02-26T13:15:14;10.37;;;4.00;;
6941;SDS011;3510;43.200;27.920;2024-02-26T13:17:42;11.57;;;3.63;;
6941;SDS011;3510;43.200;27.920;2024-02-26T13:20:10;6.77;;;3.17;;
6941;SDS011;3510;43.200;27.920;2024-02-26T13:22:38;7.70;;;3.70;;
6941;SDS011;3510;43.200;27.920;2024-02-26T13:25:07;14.77;;;4.10;;
6941;SDS011;3510;43.200;27.920;2024-02-26T13:27:34;4.77;;;4.00;;
6941;SDS011;3510;43.200;27.920;2024-02-26T13:30:02;10.60;;;3.33;;
6941;SDS011;3510;43.200;27.920;2024-02-26T13:32:31;10.33;;;4.30;;
6941;SDS011;3510;43.200;27.920;2024-02-26T13:35:04;7.87;;;4.07;;
6941;SDS011;3510;43.200;27.920;2024-02-26T13:37:32;9.50;;;4.47;;
6941;SDS011;3510;43.200;27.920;2024-02-26T13:40:15;3.73;;;3.43;;
6941;SDS011;3510;43.200;27.920;2024-02-26T13:42:44;9.23;;;4.00;;
6941;SDS011;3510;43.200;27.920;2024-02-26T13:50:26;6.63;;;4.00;;
6941;SDS011;3510;43.200;27.920;2024-02-26T13:52:53;8.50;;;4.73;;
6941;SDS011;3510;43.200;27.920;2024-02-26T13:55:22;8.03;;;4.13;;
6941;SDS011;3510;43.200;27.920;2024-02-26T13:57:51;4.93;;;3.87;;
6941;SDS011;3510;43.200;27.920;2024-02-26T14:00:19;6.67;;;4.43;;
6941;SDS011;3510;43.200;27.920;2024-02-26T14:02:46;9.00;;;4.73;;
6941;SDS011;3510;43.200;27.920;2024-02-26T14:05:17;5.47;;;3.60;;
6941;SDS011;3510;43.200;27.920;2024-02-26T14:07:47;9.60;;;5.10;;
6941;SDS011;3510;43.200;27.920;2024-02-26T14:10:25;13.07;;;4.67;;
6941;SDS011;3510;43.200;27.920;2024-02-26T14:12:54;9.23;;;4.63;;
6941;SDS011;3510;43.200;27.920;2024-02-26T14:15:21;7.47;;;4.53;;
6941;SDS011;3510;43.200;27.920;2024-02-26T14:17:49;9.50;;;4.50;;
6941;SDS011;3510;43.200;27.920;2024-02-26T14:20:20;4.30;;;3.90;;
6941;SDS011;3510;43.200;27.920;2024-02-26T14:28:21;13.07;;;4.57;;
6941;SDS011;3510;43.200;27.920;2024-02-26T14:30:52;11.33;;;5.50;;
6941;SDS011;3510;43.200;27.920;2024-02-26T14:33:19;9.33;;;4.87;;
6941;SDS011;3510;43.200;27.920;2024-02-26T14:35:46;9.50;;;4.63;;
6941;SDS011;3510;43.200;27.920;2024-02-26T14:40:54;7.33;;;4.43;;
6941;SDS011;3510;43.200;27.920;2024-02-26T14:43:22;5.63;;;4.67;;
6941;SDS011;3510;43.200;27.920;2024-02-26T14:45:49;9.53;;;5.27;;
6941;SDS011;3510;43.200;27.920;2024-02-26T14:48:17;11.57;;;4.70;;
6941;SDS011;3510;43.200;27.920;2024-02-26T14:50:45;10.07;;;4.70;;
6941;SDS011;3510;43.200;27.920;2024-02-26T14:53:19;5.67;;;4.13;;
6941;SDS011;3510;43.200;27.920;2024-02-26T14:55:51;13.00;;;5.00;;
6941;SDS011;3510;43.200;27.920;2024-02-26T14:58:18;11.00;;;4.47;;
6941;SDS011;3510;43.200;27.920;2024-02-26T15:00:47;11.20;;;4.60;;
6941;SDS011;3510;43.200;27.920;2024-02-26T15:03:15;11.10;;;4.47;;
6941;SDS011;3510;43.200;27.920;2024-02-26T15:05:42;7.90;;;4.07;;
6941;SDS011;3510;43.200;27.920;2024-02-26T15:08:09;16.53;;;5.07;;
6941;SDS011;3510;43.200;27.920;2024-02-26T15:10:40;10.57;;;4.60;;
6941;SDS011;3510;43.200;27.920;2024-02-26T15:13:12;11.80;;;4.70;;
6941;SDS011;3510;43.200;27.920;2024-02-26T15:15:44;10.43;;;4.57;;
6941;SDS011;3510;43.200;27.920;2024-02-26T15:18:12;10.17;;;4.80;;
6941;SDS011;3510;43.200;27.920;2024-02-26T15:20:41;7.47;;;4.57;;
6941;SDS011;3510;43.200;27.920;2024-02-26T15:23:08;9.27;;;5.53;;
6941;SDS011;3510;43.200;27.920;2024-02-26T15:25:35;15.57;;;4.43;;
6941;SDS011;3510;43.200;27.920;2024-02-26T15:28:03;8.33;;;4.33;;
6941;SDS011;3510;43.200;27.920;2024-02-26T15:30:31;10.33;;;4.60;;
6941;SDS011;3510;43.200;27.920;2024-02-26T15:32:58;12.73;;;6.10;;
6941;SDS011;3510;43.200;27.920;2024-02-26T15:35:27;11.33;;;5.13;;
6941;SDS011;3510;43.200;27.920;2024-02-26T15:37:54;9.87;;;4.83;;
6941;SDS011;3510;43.200;27.920;2024-02-26T15:40:21;17.33;;;4.00;;
6941;SDS011;3510;43.200;27.920;2024-02-26T15:42:48;10.80;;;4.83;;
6941;SDS011;3510;43.200;27.920;2024-02-26T15:45:16;13.00;;;5.03;;
6941;SDS011;3510;43.200;27.920;2024-02-26T15:47:44;9.90;;;4.40;;